sensor_id;sensor_type;location;lat;lon;timestamp;pressure;altitude;pressure_sealevel;temperature;humidity
48555;BME280;34336;48.270;16.716;2023-04-27T00:00:41;109325.25;;;18.16;69.03
48555;BME280;34336;48.270;16.716;2023-04-27T00:03:07;109325.25;;;18.16;69.03
48555;BME280;34336;48.270;16.716;2023-04-27T00:05:34;109325.25;;;18.16;69.72
48555;BME280;34336;48.270;16.716;2023-04-27T00:08:01;109325.25;;;18.16;69.79
48555;BME280;34336;48.270;16.716;2023-04-27T00:10:28;109325.25;;;18.16;69.71
48555;BME280;34336;48.270;16.716;2023-04-27T00:12:54;109325.25;;;18.16;70.13
48555;BME280;34336;48.270;16.716;2023-04-27T00:15:21;109325.25;;;18.16;70.23
48555;BME280;34336;48.270;16.716;2023-04-27T00:17:48;109325.25;;;18.16;70.57
48555;BME280;34336;48.270;16.716;2023-04-27T00:20:15;109325.25;;;18.16;70.54
48555;BME280;34336;48.270;16.716;2023-04-27T00:22:41;109325.25;;;18.16;70.17
48555;BME280;34336;48.270;16.716;2023-04-27T00:25:08;109325.25;;;18.16;70.61
48555;BME280;34336;48.270;16.716;2023-04-27T00:27:35;109325.25;;;18.16;69.91
48555;BME280;34336;48.270;16.716;2023-04-27T00:30:01;109325.25;;;18.16;70.52
48555;BME280;34336;48.270;16.716;2023-04-27T00:32:28;109325.25;;;18.16;70.70
48555;BME280;34336;48.270;16.716;2023-04-27T00:34:54;109325.25;;;18.16;70.44
48555;BME280;34336;48.270;16.716;2023-04-27T00:37:21;109325.25;;;18.16;70.49
48555;BME280;34336;48.270;16.716;2023-04-27T00:39:48;109325.25;;;18.16;70.96
48555;BME280;34336;48.270;16.716;2023-04-27T00:42:14;109325.25;;;18.16;70.75
48555;BME280;34336;48.270;16.716;2023-04-27T00:44:45;109325.25;;;18.16;71.09
48555;BME280;34336;48.270;16.716;2023-04-27T00:47:12;109325.25;;;18.16;71.75
48555;BME280;34336;48.270;16.716;2023-04-27T00:49:40;109325.25;;;18.16;71.64
48555;BME280;34336;48.270;16.716;2023-04-27T00:52:06;109325.25;;;18.16;71.97
48555;BME280;34336;48.270;16.716;2023-04-27T00:54:33;109325.25;;;18.16;71.73
48555;BME280;34336;48.270;16.716;2023-04-27T00:56:59;109325.25;;;18.16;72.04
48555;BME280;34336;48.270;16.716;2023-04-27T00:59:26;109325.25;;;18.16;72.27
48555;BME280;34336;48.270;16.716;2023-04-27T01:01:54;109325.25;;;18.16;72.83
48555;BME280;34336;48.270;16.716;2023-04-27T01:04:21;109325.25;;;18.16;72.31
48555;BME280;34336;48.270;16.716;2023-04-27T01:06:49;109325.25;;;18.16;72.13
48555;BME280;34336;48.270;16.716;2023-04-27T01:09:16;109325.25;;;18.16;72.11
48555;BME280;34336;48.270;16.716;2023-04-27T01:11:48;109325.25;;;18.16;72.58
48555;BME280;34336;48.270;16.716;2023-04-27T01:14:14;109325.25;;;18.16;73.00
48555;BME280;34336;48.270;16.716;2023-04-27T01:16:42;109325.25;;;18.16;73.15
48555;BME280;34336;48.270;16.716;2023-04-27T01:19:09;109325.25;;;18.16;73.35
48555;BME280;34336;48.270;16.716;2023-04-27T01:21:36;109325.25;;;18.16;73.25
48555;BME280;34336;48.270;16.716;2023-04-27T01:24:04;109325.25;;;18.16;73.50
48555;BME280;34336;48.270;16.716;2023-04-27T01:26:31;109325.25;;;18.16;74.47
48555;BME280;34336;48.270;16.716;2023-04-27T01:28:57;109325.25;;;18.16;74.79
48555;BME280;34336;48.270;16.716;2023-04-27T01:31:25;109325.25;;;18.16;76.00
48555;BME280;34336;48.270;16.716;2023-04-27T01:33:52;109325.25;;;18.16;76.55
48555;BME280;34336;48.270;16.716;2023-04-27T01:36:18;109325.25;;;18.16;76.65
48555;BME280;34336;48.270;16.716;2023-04-27T01:38:47;109325.25;;;18.16;76.80
48555;BME280;34336;48.270;16.716;2023-04-27T01:41:13;109325.25;;;18.16;77.40
48555;BME280;34336;48.270;16.716;2023-04-27T01:43:40;109325.25;;;18.16;77.53
48555;BME280;34336;48.270;16.716;2023-04-27T01:46:09;109325.25;;;18.16;78.25
48555;BME280;34336;48.270;16.716;2023-04-27T01:48:37;109325.25;;;18.16;78.23
48555;BME280;34336;48.270;16.716;2023-04-27T01:51:04;109325.25;;;18.16;78.36
48555;BME280;34336;48.270;16.716;2023-04-27T01:53:31;109325.25;;;18.16;78.76
48555;BME280;34336;48.270;16.716;2023-04-27T01:55:58;109325.25;;;18.16;78.59
48555;BME280;34336;48.270;16.716;2023-04-27T01:58:27;109325.25;;;18.16;78.41
48555;BME280;34336;48.270;16.716;2023-04-27T02:00:54;109325.25;;;18.16;78.50
48555;BME280;34336;48.270;16.716;2023-04-27T02:03:20;109325.25;;;18.16;79.06
48555;BME280;34336;48.270;16.716;2023-04-27T02:05:49;109325.25;;;18.16;78.87
48555;BME280;34336;48.270;16.716;2023-04-27T02:08:15;109325.25;;;18.16;79.93
48555;BME280;34336;48.270;16.716;2023-04-27T02:10:43;109325.25;;;18.16;80.37
48555;BME280;34336;48.270;16.716;2023-04-27T02:13:09;109325.25;;;18.16;80.44
48555;BME280;34336;48.270;16.716;2023-04-27T02:15:36;109325.25;;;18.16;80.81
48555;BME280;34336;48.270;16.716;2023-04-27T02:18:04;109325.25;;;18.16;80.59
48555;BME280;34336;48.270;16.716;2023-04-27T02:20:31;109325.25;;;18.16;80.98
48555;BME280;34336;48.270;16.716;2023-04-27T02:22:59;109325.25;;;18.16;80.72
48555;BME280;34336;48.270;16.716;2023-04-27T02:25:26;109325.25;;;18.16;82.07
48555;BME280;34336;48.270;16.716;2023-04-27T02:27:53;109325.25;;;18.16;82.89
48555;BME280;34336;48.270;16.716;2023-04-27T02:30:21;109325.25;;;18.16;83.16
48555;BME280;34336;48.270;16.716;2023-04-27T02:32:48;109325.25;;;18.16;83.68
48555;BME280;34336;48.270;16.716;2023-04-27T02:35:15;109325.25;;;18.16;83.83
48555;BME280;34336;48.270;16.716;2023-04-27T02:37:41;109325.25;;;18.16;84.06
48555;BME280;34336;48.270;16.716;2023-04-27T02:40:08;109325.25;;;18.16;84.61
48555;BME280;34336;48.270;16.716;2023-04-27T02:42:35;109325.25;;;18.16;85.17
48555;BME280;34336;48.270;16.716;2023-04-27T02:45:07;109325.25;;;18.16;85.61
48555;BME280;34336;48.270;16.716;2023-04-27T02:47:35;109325.25;;;18.16;85.78
48555;BME280;34336;48.270;16.716;2023-04-27T02:50:01;109325.25;;;18.16;86.95
48555;BME280;34336;48.270;16.716;2023-04-27T02:52:32;109325.25;;;18.16;87.68
48555;BME280;34336;48.270;16.716;2023-04-27T02:54:59;109325.25;;;18.16;88.45
48555;BME280;34336;48.270;16.716;2023-04-27T02:57:26;109325.25;;;18.16;90.34
48555;BME280;34336;48.270;16.716;2023-04-27T02:59:52;109325.25;;;18.16;91.08
48555;BME280;34336;48.270;16.716;2023-04-27T03:02:19;109325.25;;;18.16;91.96
48555;BME280;34336;48.270;16.716;2023-04-27T03:04:46;109325.25;;;18.16;92.40
48555;BME280;34336;48.270;16.716;2023-04-27T03:07:12;109325.25;;;18.16;92.56
48555;BME280;34336;48.270;16.716;2023-04-27T03:09:39;109325.25;;;18.16;92.20
48555;BME280;34336;48.270;16.716;2023-04-27T03:12:05;109325.25;;;18.16;92.30
48555;BME280;34336;48.270;16.716;2023-04-27T03:14:32;109325.25;;;18.16;92.31
48555;BME280;34336;48.270;16.716;2023-04-27T03:16:59;109325.25;;;18.16;91.64
48555;BME280;34336;48.270;16.716;2023-04-27T03:19:25;109325.25;;;18.16;91.45
48555;BME280;34336;48.270;16.716;2023-04-27T03:21:52;109325.25;;;18.16;91.25
48555;BME280;34336;48.270;16.716;2023-04-27T03:24:18;109325.25;;;18.16;91.25
48555;BME280;34336;48.270;16.716;2023-04-27T03:26:45;109325.25;;;18.16;91.20
48555;BME280;34336;48.270;16.716;2023-04-27T03:29:12;109325.25;;;18.16;90.74
48555;BME280;34336;48.270;16.716;2023-04-27T03:31:38;109325.25;;;18.16;90.82
48555;BME280;34336;48.270;16.716;2023-04-27T03:34:05;109325.25;;;18.16;90.84
48555;BME280;34336;48.270;16.716;2023-04-27T03:36:32;109325.25;;;18.16;90.94
48555;BME280;34336;48.270;16.716;2023-04-27T03:38:58;109325.25;;;18.16;90.87
48555;BME280;34336;48.270;16.716;2023-04-27T03:41:25;109325.25;;;18.16;91.16
48555;BME280;34336;48.270;16.716;2023-04-27T03:43:51;109325.25;;;18.16;91.53
48555;BME280;34336;48.270;16.716;2023-04-27T03:46:18;109325.25;;;18.16;92.44
48555;BME280;34336;48.270;16.716;2023-04-27T03:48:45;109325.25;;;18.16;92.67
48555;BME280;34336;48.270;16.716;2023-04-27T03:51:12;109325.25;;;18.16;93.08
48555;BME280;34336;48.270;16.716;2023-04-27T03:53:42;109325.25;;;18.16;92.93
48555;BME280;34336;48.270;16.716;2023-04-27T03:56:08;109325.25;;;18.16;92.37
48555;BME280;34336;48.270;16.716;2023-04-27T03:58:35;109325.25;;;18.16;91.89
48555;BME280;34336;48.270;16.716;2023-04-27T04:01:14;109325.25;;;18.16;91.77
48555;BME280;34336;48.270;16.716;2023-04-27T04:03:42;109325.25;;;18.16;91.22
48555;BME280;34336;48.270;16.716;2023-04-27T04:06:10;109325.25;;;18.16;90.95
48555;BME280;34336;48.270;16.716;2023-04-27T04:08:37;109325.25;;;18.16;90.64
48555;BME280;34336;48.270;16.716;2023-04-27T04:11:04;109325.25;;;18.16;89.51
48555;BME280;34336;48.270;16.716;2023-04-27T04:13:31;109325.25;;;18.16;89.02
48555;BME280;34336;48.270;16.716;2023-04-27T04:18:28;109325.25;;;18.16;86.86
48555;BME280;34336;48.270;16.716;2023-04-27T04:20:54;109325.25;;;18.16;85.74
48555;BME280;34336;48.270;16.716;2023-04-27T04:23:21;109325.25;;;18.16;84.21
48555;BME280;34336;48.270;16.716;2023-04-27T04:25:48;109325.25;;;18.16;81.26
48555;BME280;34336;48.270;16.716;2023-04-27T04:28:15;109325.25;;;18.16;72.71
48555;BME280;34336;48.270;16.716;2023-04-27T04:30:42;109325.25;;;18.16;60.73
48555;BME280;34336;48.270;16.716;2023-04-27T04:33:08;109325.25;;;18.16;53.89
48555;BME280;34336;48.270;16.716;2023-04-27T04:35:38;109325.25;;;18.16;52.08
48555;BME280;34336;48.270;16.716;2023-04-27T04:38:05;109325.25;;;18.16;50.22
48555;BME280;34336;48.270;16.716;2023-04-27T04:40:31;109325.25;;;18.16;50.31
48555;BME280;34336;48.270;16.716;2023-04-27T04:42:58;109325.25;;;18.16;49.46
48555;BME280;34336;48.270;16.716;2023-04-27T04:45:24;109325.25;;;18.16;49.21
48555;BME280;34336;48.270;16.716;2023-04-27T04:47:52;109325.25;;;18.16;51.99
48555;BME280;34336;48.270;16.716;2023-04-27T04:50:19;109325.25;;;18.16;51.62
48555;BME280;34336;48.270;16.716;2023-04-27T04:52:46;109325.25;;;18.16;48.00
48555;BME280;34336;48.270;16.716;2023-04-27T04:55:13;109325.25;;;18.16;46.33
48555;BME280;34336;48.270;16.716;2023-04-27T04:57:40;109325.25;;;18.16;44.22
48555;BME280;34336;48.270;16.716;2023-04-27T05:00:07;109325.25;;;18.16;44.78
48555;BME280;34336;48.270;16.716;2023-04-27T05:02:37;109325.25;;;18.16;43.13
48555;BME280;34336;48.270;16.716;2023-04-27T05:05:04;109325.25;;;18.16;45.05
48555;BME280;34336;48.270;16.716;2023-04-27T05:07:32;109325.25;;;18.16;47.34
48555;BME280;34336;48.270;16.716;2023-04-27T05:09:58;109325.25;;;18.16;46.50
48555;BME280;34336;48.270;16.716;2023-04-27T05:12:25;109325.25;;;18.16;46.35
48555;BME280;34336;48.270;16.716;2023-04-27T05:14:51;109325.25;;;18.16;46.69
48555;BME280;34336;48.270;16.716;2023-04-27T05:17:18;109325.25;;;18.16;45.88
48555;BME280;34336;48.270;16.716;2023-04-27T05:19:45;109325.25;;;18.16;41.82
48555;BME280;34336;48.270;16.716;2023-04-27T05:22:11;109325.25;;;18.16;41.67
48555;BME280;34336;48.270;16.716;2023-04-27T05:24:38;109325.25;;;18.16;38.89
48555;BME280;34336;48.270;16.716;2023-04-27T05:27:04;109325.25;;;18.16;38.24
48555;BME280;34336;48.270;16.716;2023-04-27T05:29:31;109325.25;;;18.16;36.87
48555;BME280;34336;48.270;16.716;2023-04-27T05:31:57;109325.25;;;18.16;41.45
48555;BME280;34336;48.270;16.716;2023-04-27T05:34:24;109325.25;;;18.16;40.06
48555;BME280;34336;48.270;16.716;2023-04-27T05:36:50;109325.25;;;18.16;40.16
48555;BME280;34336;48.270;16.716;2023-04-27T05:39:17;109325.25;;;18.16;40.01
48555;BME280;34336;48.270;16.716;2023-04-27T05:41:43;109325.25;;;18.16;42.52
48555;BME280;34336;48.270;16.716;2023-04-27T05:44:10;109325.25;;;18.16;41.11
48555;BME280;34336;48.270;16.716;2023-04-27T05:46:36;109325.25;;;18.16;42.77
48555;BME280;34336;48.270;16.716;2023-04-27T05:49:04;109325.25;;;18.16;41.72
48555;BME280;34336;48.270;16.716;2023-04-27T05:51:31;109325.25;;;18.16;41.35
48555;BME280;34336;48.270;16.716;2023-04-27T05:53:57;109325.25;;;18.16;38.98
48555;BME280;34336;48.270;16.716;2023-04-27T05:56:26;109325.25;;;18.16;38.30
48555;BME280;34336;48.270;16.716;2023-04-27T05:58:53;109325.25;;;18.16;36.73
48555;BME280;34336;48.270;16.716;2023-04-27T06:01:20;109325.25;;;18.16;37.92
48555;BME280;34336;48.270;16.716;2023-04-27T06:03:46;109325.25;;;18.16;36.80
48555;BME280;34336;48.270;16.716;2023-04-27T06:06:13;109325.25;;;18.16;40.20
48555;BME280;34336;48.270;16.716;2023-04-27T06:08:40;109325.25;;;18.16;39.54
48555;BME280;34336;48.270;16.716;2023-04-27T06:11:06;109325.25;;;18.16;38.69
48555;BME280;34336;48.270;16.716;2023-04-27T06:13:33;109325.25;;;18.16;37.41
48555;BME280;34336;48.270;16.716;2023-04-27T06:16:00;109325.25;;;18.16;37.82
48555;BME280;34336;48.270;16.716;2023-04-27T06:18:27;109325.25;;;18.16;36.83
48555;BME280;34336;48.270;16.716;2023-04-27T06:20:57;109325.25;;;18.16;38.48
48555;BME280;34336;48.270;16.716;2023-04-27T06:23:24;109325.25;;;18.16;37.04
48555;BME280;34336;48.270;16.716;2023-04-27T06:25:50;109325.25;;;18.16;36.27
48555;BME280;34336;48.270;16.716;2023-04-27T06:28:17;109325.25;;;18.16;38.43
48555;BME280;34336;48.270;16.716;2023-04-27T06:30:44;109325.25;;;18.16;38.85
48555;BME280;34336;48.270;16.716;2023-04-27T06:33:10;109325.25;;;18.16;39.07
48555;BME280;34336;48.270;16.716;2023-04-27T06:35:37;109325.25;;;18.16;35.89
48555;BME280;34336;48.270;16.716;2023-04-27T06:38:03;109325.25;;;18.16;33.13
48555;BME280;34336;48.270;16.716;2023-04-27T06:40:32;109325.25;;;18.16;32.08
48555;BME280;34336;48.270;16.716;2023-04-27T06:42:59;109325.25;;;18.16;34.77
48555;BME280;34336;48.270;16.716;2023-04-27T06:45:26;109325.25;;;18.16;31.85
48555;BME280;34336;48.270;16.716;2023-04-27T06:47:52;109325.25;;;18.16;34.40
48555;BME280;34336;48.270;16.716;2023-04-27T06:50:19;109325.25;;;18.16;34.69
48555;BME280;34336;48.270;16.716;2023-04-27T06:52:45;109325.25;;;18.16;36.12
48555;BME280;34336;48.270;16.716;2023-04-27T06:55:12;109325.25;;;18.16;36.73
48555;BME280;34336;48.270;16.716;2023-04-27T06:57:38;109325.25;;;18.16;35.79
48555;BME280;34336;48.270;16.716;2023-04-27T07:00:05;109325.25;;;18.16;35.67
48555;BME280;34336;48.270;16.716;2023-04-27T07:02:32;109325.25;;;18.16;34.08
48555;BME280;34336;48.270;16.716;2023-04-27T07:04:58;109325.25;;;18.16;34.02
48555;BME280;34336;48.270;16.716;2023-04-27T07:07:25;109325.25;;;18.16;32.07
48555;BME280;34336;48.270;16.716;2023-04-27T07:09:52;109325.25;;;18.16;31.75
48555;BME280;34336;48.270;16.716;2023-04-27T07:12:18;109325.25;;;18.16;32.42
48555;BME280;34336;48.270;16.716;2023-04-27T07:14:45;109325.25;;;18.16;33.13
48555;BME280;34336;48.270;16.716;2023-04-27T07:17:11;109325.25;;;18.16;34.34
48555;BME280;34336;48.270;16.716;2023-04-27T07:19:38;109325.25;;;18.16;33.90
48555;BME280;34336;48.270;16.716;2023-04-27T07:22:04;109325.25;;;18.16;33.91
48555;BME280;34336;48.270;16.716;2023-04-27T07:24:31;109325.25;;;18.16;32.95
48555;BME280;34336;48.270;16.716;2023-04-27T07:26:58;109325.25;;;18.16;33.96
48555;BME280;34336;48.270;16.716;2023-04-27T07:29:24;109325.25;;;18.16;33.46
48555;BME280;34336;48.270;16.716;2023-04-27T07:31:53;109325.25;;;18.16;34.25
48555;BME280;34336;48.270;16.716;2023-04-27T07:34:21;109325.25;;;18.16;30.85
48555;BME280;34336;48.270;16.716;2023-04-27T07:36:47;109325.25;;;18.16;32.36
48555;BME280;34336;48.270;16.716;2023-04-27T07:39:14;109325.25;;;18.16;31.39
48555;BME280;34336;48.270;16.716;2023-04-27T07:41:41;109325.25;;;18.16;29.43
48555;BME280;34336;48.270;16.716;2023-04-27T07:44:08;109325.25;;;18.16;28.71
48555;BME280;34336;48.270;16.716;2023-04-27T07:46:34;109325.25;;;18.16;28.06
48555;BME280;34336;48.270;16.716;2023-04-27T07:49:01;109325.25;;;18.16;28.51
48555;BME280;34336;48.270;16.716;2023-04-27T07:51:27;109325.25;;;18.16;30.86
48555;BME280;34336;48.270;16.716;2023-04-27T07:53:54;109325.25;;;18.16;29.83
48555;BME280;34336;48.270;16.716;2023-04-27T07:56:21;109325.25;;;18.16;31.55
48555;BME280;34336;48.270;16.716;2023-04-27T07:58:48;109325.25;;;18.16;28.34
48555;BME280;34336;48.270;16.716;2023-04-27T08:01:14;109325.25;;;18.16;28.52
48555;BME280;34336;48.270;16.716;2023-04-27T08:03:43;109325.25;;;18.16;30.34
48555;BME280;34336;48.270;16.716;2023-04-27T08:06:10;109325.25;;;18.16;29.07
48555;BME280;34336;48.270;16.716;2023-04-27T08:08:37;109325.25;;;18.16;30.36
48555;BME280;34336;48.270;16.716;2023-04-27T08:11:04;109325.25;;;18.16;30.27
48555;BME280;34336;48.270;16.716;2023-04-27T08:13:34;109325.25;;;18.16;35.13
48555;BME280;34336;48.270;16.716;2023-04-27T08:16:00;109325.25;;;18.16;32.10
48555;BME280;34336;48.270;16.716;2023-04-27T08:18:27;109325.25;;;18.16;34.53
48555;BME280;34336;48.270;16.716;2023-04-27T08:20:53;109325.25;;;18.16;31.04
48555;BME280;34336;48.270;16.716;2023-04-27T08:23:20;109325.25;;;18.16;31.14
48555;BME280;34336;48.270;16.716;2023-04-27T08:25:46;109325.25;;;18.16;35.19
48555;BME280;34336;48.270;16.716;2023-04-27T08:28:14;109325.25;;;18.16;34.25
48555;BME280;34336;48.270;16.716;2023-04-27T08:30:41;109325.25;;;18.16;32.95
48555;BME280;34336;48.270;16.716;2023-04-27T08:33:07;109325.25;;;18.16;33.18
48555;BME280;34336;48.270;16.716;2023-04-27T08:35:34;109325.25;;;18.16;32.69
48555;BME280;34336;48.270;16.716;2023-04-27T08:38:00;109325.25;;;18.16;32.05
48555;BME280;34336;48.270;16.716;2023-04-27T08:40:27;109325.25;;;18.16;33.08
48555;BME280;34336;48.270;16.716;2023-04-27T08:42:55;109325.25;;;18.16;32.28
48555;BME280;34336;48.270;16.716;2023-04-27T08:45:22;109325.25;;;18.16;33.54
48555;BME280;34336;48.270;16.716;2023-04-27T08:47:49;109325.25;;;18.16;31.55
48555;BME280;34336;48.270;16.716;2023-04-27T08:50:16;109325.25;;;18.16;35.05
48555;BME280;34336;48.270;16.716;2023-04-27T08:52:44;109325.25;;;18.16;31.71
48555;BME280;34336;48.270;16.716;2023-04-27T08:55:11;109325.25;;;18.16;31.35
48555;BME280;34336;48.270;16.716;2023-04-27T08:57:41;109325.25;;;18.16;32.31
48555;BME280;34336;48.270;16.716;2023-04-27T09:00:08;109325.25;;;18.16;33.05
48555;BME280;34336;48.270;16.716;2023-04-27T09:02:44;109325.25;;;18.16;31.10
48555;BME280;34336;48.270;16.716;2023-04-27T09:05:18;109325.25;;;18.16;32.16
48555;BME280;34336;48.270;16.716;2023-04-27T09:10:45;109325.25;;;18.16;34.48
48555;BME280;34336;48.270;16.716;2023-04-27T09:13:12;109325.25;;;18.16;34.55
48555;BME280;34336;48.270;16.716;2023-04-27T09:18:14;109325.25;;;18.16;35.64
48555;BME280;34336;48.270;16.716;2023-04-27T09:20:42;109325.25;;;18.16;32.77
48555;BME280;34336;48.270;16.716;2023-04-27T09:23:08;109325.25;;;18.16;33.24
48555;BME280;34336;48.270;16.716;2023-04-27T09:25:35;109325.25;;;18.16;34.72
48555;BME280;34336;48.270;16.716;2023-04-27T09:28:01;109325.25;;;18.16;32.84
48555;BME280;34336;48.270;16.716;2023-04-27T09:30:28;109325.25;;;18.16;32.53
48555;BME280;34336;48.270;16.716;2023-04-27T09:37:49;109325.25;;;18.16;32.02
48555;BME280;34336;48.270;16.716;2023-04-27T09:40:21;109325.25;;;18.16;36.38
48555;BME280;34336;48.270;16.716;2023-04-27T09:42:53;109325.25;;;18.16;33.48
48555;BME280;34336;48.270;16.716;2023-04-27T09:45:21;109325.25;;;18.16;32.56
48555;BME280;34336;48.270;16.716;2023-04-27T09:47:48;109325.25;;;18.16;34.27
48555;BME280;34336;48.270;16.716;2023-04-27T09:50:15;109325.25;;;18.16;33.45
48555;BME280;34336;48.270;16.716;2023-04-27T09:52:41;109325.25;;;18.16;33.06
48555;BME280;34336;48.270;16.716;2023-04-27T09:55:09;109325.25;;;18.16;34.00
48555;BME280;34336;48.270;16.716;2023-04-27T09:57:42;109325.25;;;18.16;31.96
48555;BME280;34336;48.270;16.716;2023-04-27T10:00:24;109325.25;;;18.16;35.59
48555;BME280;34336;48.270;16.716;2023-04-27T10:07:50;109325.25;;;18.16;33.96
48555;BME280;34336;48.270;16.716;2023-04-27T10:10:17;109325.25;;;18.16;32.00
48555;BME280;34336;48.270;16.716;2023-04-27T10:12:54;109325.25;;;18.16;34.53
48555;BME280;34336;48.270;16.716;2023-04-27T10:15:24;109325.25;;;18.16;32.68
48555;BME280;34336;48.270;16.716;2023-04-27T10:17:51;109325.25;;;18.16;35.31
48555;BME280;34336;48.270;16.716;2023-04-27T10:20:30;109325.25;;;18.16;33.93
48555;BME280;34336;48.270;16.716;2023-04-27T10:22:57;109325.25;;;18.16;33.39
48555;BME280;34336;48.270;16.716;2023-04-27T10:25:27;109325.25;;;18.16;31.55
48555;BME280;34336;48.270;16.716;2023-04-27T10:27:55;109325.25;;;18.16;36.91
48555;BME280;34336;48.270;16.716;2023-04-27T10:30:24;109325.25;;;18.16;34.28
48555;BME280;34336;48.270;16.716;2023-04-27T10:32:58;109325.25;;;18.16;35.62
48555;BME280;34336;48.270;16.716;2023-04-27T10:35:32;109325.25;;;18.16;35.98
48555;BME280;34336;48.270;16.716;2023-04-27T10:38:06;109325.25;;;18.16;36.82
48555;BME280;34336;48.270;16.716;2023-04-27T10:40:34;109325.25;;;18.16;34.40
48555;BME280;34336;48.270;16.716;2023-04-27T10:43:11;109325.25;;;18.16;33.37
48555;BME280;34336;48.270;16.716;2023-04-27T10:45:38;109325.25;;;18.16;32.55
48555;BME280;34336;48.270;16.716;2023-04-27T10:48:05;109325.25;;;18.16;31.31
48555;BME280;34336;48.270;16.716;2023-04-27T10:50:32;109325.25;;;18.16;32.78
48555;BME280;34336;48.270;16.716;2023-04-27T10:52:59;109325.25;;;18.16;31.18
48555;BME280;34336;48.270;16.716;2023-04-27T10:55:27;109325.25;;;18.16;33.16
48555;BME280;34336;48.270;16.716;2023-04-27T10:57:56;109325.25;;;18.16;33.16
48555;BME280;34336;48.270;16.716;2023-04-27T11:02:49;109325.25;;;18.16;34.44
48555;BME280;34336;48.270;16.716;2023-04-27T11:05:17;109325.25;;;18.16;33.63
48555;BME280;34336;48.270;16.716;2023-04-27T11:07:44;109325.25;;;18.16;34.09
48555;BME280;34336;48.270;16.716;2023-04-27T11:10:18;109325.25;;;18.16;34.50
48555;BME280;34336;48.270;16.716;2023-04-27T11:12:45;109325.25;;;18.16;32.23
48555;BME280;34336;48.270;16.716;2023-04-27T11:15:12;109325.25;;;18.16;34.88
48555;BME280;34336;48.270;16.716;2023-04-27T11:17:39;109325.25;;;18.16;34.67
48555;BME280;34336;48.270;16.716;2023-04-27T11:20:07;109325.25;;;18.16;35.96
48555;BME280;34336;48.270;16.716;2023-04-27T11:22:42;109325.25;;;18.16;34.27
48555;BME280;34336;48.270;16.716;2023-04-27T11:25:08;109325.25;;;18.16;33.22
48555;BME280;34336;48.270;16.716;2023-04-27T11:27:35;109325.25;;;18.16;33.71
48555;BME280;34336;48.270;16.716;2023-04-27T11:30:03;109325.25;;;18.16;34.39
48555;BME280;34336;48.270;16.716;2023-04-27T11:32:29;109325.25;;;18.16;33.48
48555;BME280;34336;48.270;16.716;2023-04-27T11:34:56;109325.25;;;18.16;33.85
48555;BME280;34336;48.270;16.716;2023-04-27T11:37:25;109325.25;;;18.16;34.27
48555;BME280;34336;48.270;16.716;2023-04-27T11:39:53;109325.25;;;18.16;35.03
48555;BME280;34336;48.270;16.716;2023-04-27T11:47:20;109325.25;;;18.16;35.37
48555;BME280;34336;48.270;16.716;2023-04-27T11:49:48;109325.25;;;18.16;35.10
48555;BME280;34336;48.270;16.716;2023-04-27T11:52:15;109325.25;;;18.16;33.90
48555;BME280;34336;48.270;16.716;2023-04-27T11:54:48;109325.25;;;18.16;35.46
48555;BME280;34336;48.270;16.716;2023-04-27T11:57:15;109325.25;;;18.16;33.13
48555;BME280;34336;48.270;16.716;2023-04-27T11:59:42;109325.25;;;18.16;34.45
48555;BME280;34336;48.270;16.716;2023-04-27T12:02:08;109325.25;;;18.16;35.62
48555;BME280;34336;48.270;16.716;2023-04-27T12:04:35;109325.25;;;18.16;32.60
48555;BME280;34336;48.270;16.716;2023-04-27T12:07:02;109325.25;;;18.16;33.19
48555;BME280;34336;48.270;16.716;2023-04-27T12:09:29;109325.25;;;18.16;32.41
48555;BME280;34336;48.270;16.716;2023-04-27T12:11:56;109325.25;;;18.16;30.99
48555;BME280;34336;48.270;16.716;2023-04-27T12:14:23;109325.25;;;18.16;33.36
48555;BME280;34336;48.270;16.716;2023-04-27T12:16:50;109325.25;;;18.16;31.60
48555;BME280;34336;48.270;16.716;2023-04-27T12:19:17;109325.25;;;18.16;32.27
48555;BME280;34336;48.270;16.716;2023-04-27T12:21:43;109325.25;;;18.16;31.36
48555;BME280;34336;48.270;16.716;2023-04-27T12:24:10;109325.25;;;18.16;32.39
48555;BME280;34336;48.270;16.716;2023-04-27T12:26:38;109325.25;;;18.16;31.73
48555;BME280;34336;48.270;16.716;2023-04-27T12:29:05;109325.25;;;18.16;32.43
48555;BME280;34336;48.270;16.716;2023-04-27T12:31:32;109325.25;;;18.16;30.20
48555;BME280;34336;48.270;16.716;2023-04-27T12:33:59;109325.25;;;18.16;30.81
48555;BME280;34336;48.270;16.716;2023-04-27T12:36:26;109325.25;;;18.16;30.60
48555;BME280;34336;48.270;16.716;2023-04-27T12:38:56;109325.25;;;18.16;31.43
48555;BME280;34336;48.270;16.716;2023-04-27T12:41:23;109325.25;;;18.16;31.10
48555;BME280;34336;48.270;16.716;2023-04-27T12:43:50;109325.25;;;18.16;34.08
48555;BME280;34336;48.270;16.716;2023-04-27T12:46:17;109325.25;;;18.16;31.25
48555;BME280;34336;48.270;16.716;2023-04-27T12:48:43;109325.25;;;18.16;30.51
48555;BME280;34336;48.270;16.716;2023-04-27T12:51:10;109325.25;;;18.16;33.18
48555;BME280;34336;48.270;16.716;2023-04-27T12:53:37;109325.25;;;18.16;30.41
48555;BME280;34336;48.270;16.716;2023-04-27T12:56:03;109325.25;;;18.16;31.92
48555;BME280;34336;48.270;16.716;2023-04-27T12:58:30;109325.25;;;18.16;31.29
48555;BME280;34336;48.270;16.716;2023-04-27T13:00:57;109325.25;;;18.16;34.69
48555;BME280;34336;48.270;16.716;2023-04-27T13:03:23;109325.25;;;18.16;32.59
48555;BME280;34336;48.270;16.716;2023-04-27T13:05:50;109325.25;;;18.16;33.13